Time;durP1;ratioP1;P1;durP2;ratioP2;P2;SDS_P1;SDS_P2;PMS_P1;PMS_P2;Temp;Humidity;BMP_temperature;BMP_pressure;BME280_temperature;BME280_humidity;BME280_pressure;Samples;Min_cycle;Max_cycle;Signal;HPM_P1;HPM_P2
2021/09/19 00:01:59;;;;;;;10.27;9.27;;;;;;;14.35;90.02;155045.72;5051882;28;20451;-73
2021/09/19 00:04:34;;;;;;;10.10;8.03;;;;;;;14.34;89.94;155044.41;5031673;28;20460;-73
2021/09/19 00:07:09;;;;;;;10.23;9.23;;;;;;;14.33;91.52;155040.47;5027305;28;20466;-73
2021/09/19 00:09:46;;;;;;;10.10;8.80;;;;;;;14.26;90.35;155023.56;5019241;28;20443;-73
2021/09/19 00:12:22;;;;;;;10.03;9.07;;;;;;;14.30;90.41;155032.63;5048460;28;20450;-73
2021/09/19 00:14:57;;;;;;;8.90;8.00;;;;;;;14.32;89.79;155039.16;5051991;28;20448;-73
2021/09/19 00:17:33;;;;;;;15.53;8.53;;;;;;;14.31;90.39;155035.25;5034009;28;21012;-73
2021/09/19 00:20:09;;;;;;;8.77;8.07;;;;;;;14.24;90.38;155018.38;5030465;28;20847;-73
2021/09/19 00:22:45;;;;;;;8.60;7.80;;;;;;;14.20;90.01;155007.97;5026692;28;20771;-73
2021/09/19 00:25:22;;;;;;;9.37;7.80;;;;;;;14.18;90.15;155002.78;5034175;28;21052;-73
2021/09/19 00:27:57;;;;;;;14.13;7.90;;;;;;;14.19;89.81;155004.09;5051627;28;20416;-73
2021/09/19 00:30:33;;;;;;;10.03;8.77;;;;;;;14.20;89.74;155007.97;5030865;28;20454;-73
2021/09/19 00:33:08;;;;;;;8.93;8.03;;;;;;;14.21;89.73;155009.28;5034186;28;20860;-73
2021/09/19 00:35:44;;;;;;;8.43;7.60;;;;;;;14.16;89.73;154997.59;5033771;28;20478;-73
2021/09/19 00:38:20;;;;;;;8.60;7.60;;;;;;;14.13;89.76;154989.81;5040000;28;20444;-73
2021/09/19 00:40:56;;;;;;;9.17;8.13;;;;;;;14.14;90.00;154992.38;5039465;28;20454;-73
2021/09/19 00:43:32;;;;;;;9.57;8.63;;;;;;;14.10;90.10;154982.03;5034157;28;20446;-73
2021/09/19 00:46:07;;;;;;;8.77;7.97;;;;;;;14.13;89.64;154988.50;5019010;28;20782;-73
2021/09/19 00:48:43;;;;;;;9.70;8.77;;;;;;;14.23;89.07;155015.78;5034085;28;20448;-73
2021/09/19 00:51:18;;;;;;;9.43;7.37;;;;;;;14.09;89.92;154979.41;5048213;28;20467;-73
2021/09/19 00:53:56;;;;;;;9.00;8.03;;;;;;;14.15;89.45;154993.69;5032617;28;20444;-73
2021/09/19 00:56:34;;;;;;;9.80;8.60;;;;;;;14.06;89.93;154971.59;5014175;28;20451;-73
2021/09/19 00:59:10;;;;;;;8.67;7.77;;;;;;;14.01;90.23;154959.94;5033569;28;20845;-73
2021/09/19 01:01:46;;;;;;;8.87;7.97;;;;;;;13.98;90.21;154950.81;5035170;28;20443;-73
2021/09/19 01:04:22;;;;;;;9.23;8.27;;;;;;;13.94;90.54;154941.78;5048825;28;20499;-73
2021/09/19 01:06:57;;;;;;;9.97;8.97;;;;;;;13.86;90.95;154919.69;5051774;28;20942;-73
2021/09/19 01:09:33;;;;;;;9.43;8.30;;;;;;;13.87;91.10;154922.31;5034384;28;20458;-73
2021/09/19 01:12:12;;;;;;;10.53;9.53;;;;;;;13.85;91.00;154918.38;5030692;28;20961;-73
2021/09/19 01:14:48;;;;;;;9.67;8.67;;;;;;;13.82;91.21;154909.34;5034773;28;20451;-73
2021/09/19 01:17:24;;;;;;;10.00;9.00;;;;;;;13.80;91.44;154904.09;5037491;28;20447;-73
2021/09/19 01:19:59;;;;;;;9.10;8.20;;;;;;;13.78;91.42;154898.91;5037884;28;20431;-73
2021/09/19 01:22:36;;;;;;;8.90;7.77;;;;;;;13.73;91.72;154887.25;5054945;28;20447;-73
2021/09/19 01:25:14;;;;;;;11.13;8.77;;;;;;;13.68;92.69;154872.97;5037177;28;21237;-73
2021/09/19 01:27:50;;;;;;;9.07;8.17;;;;;;;13.65;92.93;154865.19;5036286;28;20451;-73
2021/09/19 01:30:26;;;;;;;9.87;8.87;;;;;;;13.58;93.56;154848.28;5036566;28;20467;-73
2021/09/19 01:33:01;;;;;;;10.40;9.30;;;;;;;13.52;93.55;154831.44;5036987;28;20864;-73
2021/09/19 01:35:37;;;;;;;8.80;7.90;;;;;;;13.50;94.53;154827.56;5037086;28;20537;-73
2021/09/19 01:38:12;;;;;;;9.63;8.63;;;;;;;13.56;94.07;154841.78;5045678;28;20446;-73
2021/09/19 01:40:49;;;;;;;9.13;8.23;;;;;;;13.49;93.79;154824.94;5026341;28;20452;-73
2021/09/19 01:43:25;;;;;;;9.73;8.73;;;;;;;13.52;94.27;154831.44;5051957;28;20521;-73
2021/09/19 01:46:00;;;;;;;9.03;8.13;;;;;;;13.50;93.64;154827.56;5037146;28;20482;-73
2021/09/19 01:48:37;;;;;;;9.07;8.17;;;;;;;13.47;93.83;154819.78;5053736;28;20497;-73
2021/09/19 01:51:13;;;;;;;8.03;7.23;;;;;;;13.48;93.95;154821.03;5037151;28;20467;-73
2021/09/19 01:53:50;;;;;;;10.27;8.97;;;;;;;13.42;93.97;154808.06;5036887;28;20439;-73
2021/09/19 01:56:27;;;;;;;9.63;8.63;;;;;;;13.40;94.28;154802.88;5041902;28;20916;-73
2021/09/19 01:59:03;;;;;;;9.17;8.30;;;;;;;13.37;94.72;154795.09;5035902;28;20805;-73
2021/09/19 02:01:38;;;;;;;11.23;10.03;;;;;;;13.35;94.37;154788.59;5036065;28;20451;-73
2021/09/19 02:04:14;;;;;;;10.00;9.00;;;;;;;13.37;95.10;154793.78;5036751;28;20470;-73
2021/09/19 02:06:50;;;;;;;9.20;8.20;;;;;;;13.33;94.61;154784.72;5035201;28;20442;-73
2021/09/19 02:09:25;;;;;;;9.70;8.57;;;;;;;13.34;94.70;154786.03;5038318;28;20435;-73
2021/09/19 02:12:02;;;;;;;9.30;8.27;;;;;;;13.31;94.93;154779.56;5047086;28;20488;-73
2021/09/19 02:14:37;;;;;;;9.10;8.20;;;;;;;13.32;95.74;154782.13;5054511;28;20419;-73
2021/09/19 02:17:14;;;;;;;9.13;8.17;;;;;;;13.25;95.66;154762.66;5030391;28;20541;-73
2021/09/19 02:19:49;;;;;;;9.40;8.27;;;;;;;13.24;95.29;154761.34;5016536;28;20483;-73
2021/09/19 02:22:25;;;;;;;9.00;8.10;;;;;;;13.31;94.91;154779.56;5022625;28;20546;-73
2021/09/19 02:25:00;;;;;;;10.13;8.60;;;;;;;13.40;93.93;154802.88;5036190;28;21030;-73
2021/09/19 02:27:38;;;;;;;9.97;8.93;;;;;;;13.37;94.59;154795.09;5026125;28;20447;-73
2021/09/19 02:30:15;;;;;;;8.33;7.47;;;;;;;13.27;94.81;154769.13;5032737;28;20439;-73
2021/09/19 02:32:51;;;;;;;8.13;7.33;;;;;;;13.18;94.56;154745.81;5020505;28;20465;-73
2021/09/19 02:35:26;;;;;;;10.37;9.00;;;;;;;13.08;95.06;154719.81;5032794;28;20440;-73
2021/09/19 02:38:02;;;;;;;8.77;7.87;;;;;;;13.04;95.92;154709.44;5019507;28;20457;-73
2021/09/19 02:40:38;;;;;;;9.00;7.70;;;;;;;12.94;96.06;154683.50;5049696;28;20445;-73
2021/09/19 02:43:14;;;;;;;8.90;8.00;;;;;;;12.85;97.01;154660.13;5053644;28;20454;-73
2021/09/19 02:45:50;;;;;;;8.43;7.43;;;;;;;12.84;97.55;154657.50;5034436;28;20569;-73
2021/09/19 02:48:26;;;;;;;8.70;7.80;;;;;;;12.76;97.99;154636.81;5027101;28;20470;-73
2021/09/19 02:51:02;;;;;;;9.30;8.30;;;;;;;12.70;97.80;154621.22;5035051;28;20481;-73
2021/09/19 02:53:37;;;;;;;9.27;7.70;;;;;;;12.67;98.17;154613.44;5035714;28;20533;-73
2021/09/19 02:56:13;;;;;;;9.33;8.23;;;;;;;12.69;99.55;154618.63;5034022;28;20478;-73
2021/09/19 02:58:50;;;;;;;9.70;8.70;;;;;;;12.71;99.45;154623.78;5049234;28;20447;-73
2021/09/19 03:01:25;;;;;;;10.73;9.70;;;;;;;12.72;99.73;154627.72;5015412;28;20981;-73
2021/09/19 03:04:01;;;;;;;10.40;9.27;;;;;;;12.76;100.00;154636.81;5015471;28;20435;-73
2021/09/19 03:06:37;;;;;;;11.13;9.33;;;;;;;12.76;99.68;154638.06;5018964;28;20438;-73
2021/09/19 03:09:12;;;;;;;9.57;8.60;;;;;;;12.78;99.37;154643.28;5033735;28;20797;-73
2021/09/19 03:11:48;;;;;;;8.93;8.07;;;;;;;12.67;98.83;154614.75;5020068;28;20478;-73
2021/09/19 03:14:25;;;;;;;9.67;8.67;;;;;;;12.57;98.77;154587.50;5034245;28;20458;-73
2021/09/19 03:17:00;;;;;;;9.23;8.33;;;;;;;12.49;98.55;154566.75;5031591;28;20444;-73
2021/09/19 03:19:36;;;;;;;10.07;8.53;;;;;;;12.57;100.00;154588.81;5032722;28;20898;-73
2021/09/19 03:22:11;;;;;;;9.63;8.63;;;;;;;12.58;100.00;154591.38;5037020;28;21030;-73
2021/09/19 03:24:46;;;;;;;11.03;9.93;;;;;;;12.60;100.00;154596.56;5035683;28;20856;-73
2021/09/19 03:27:22;;;;;;;11.43;10.27;;;;;;;12.63;100.00;154604.34;5035109;28;20883;-73
2021/09/19 03:29:59;;;;;;;9.47;8.47;;;;;;;12.59;99.66;154592.69;5033426;28;20450;-73
2021/09/19 03:32:35;;;;;;;9.77;8.77;;;;;;;12.52;99.54;154574.53;5035310;28;20535;-73
2021/09/19 03:35:11;;;;;;;10.43;8.80;;;;;;;12.41;99.24;154546.00;5052054;28;20417;-73
2021/09/19 03:37:47;;;;;;;9.17;8.27;;;;;;;12.39;99.83;154540.84;5032905;28;20530;-73
2021/09/19 03:40:22;;;;;;;10.50;9.50;;;;;;;12.32;98.86;154523.94;5035399;28;20556;-73
2021/09/19 03:42:57;;;;;;;11.87;9.33;;;;;;;12.28;98.85;154512.31;5032894;28;20415;-73
2021/09/19 03:45:34;;;;;;;10.03;8.50;;;;;;;12.27;99.37;154511.00;5047574;28;20479;-73
2021/09/19 03:48:10;;;;;;;9.87;8.87;;;;;;;12.23;99.42;154499.34;5026120;28;20826;-73
2021/09/19 03:50:45;;;;;;;9.63;8.63;;;;;;;12.17;99.40;154486.38;5030195;28;21849;-73
2021/09/19 03:53:21;;;;;;;9.83;8.70;;;;;;;12.12;99.81;154473.41;5015054;28;20956;-73
2021/09/19 03:55:56;;;;;;;11.23;9.50;;;;;;;12.09;99.46;154465.63;5035099;28;20827;-73
2021/09/19 03:58:32;;;;;;;10.10;9.10;;;;;;;12.07;99.54;154460.41;5017691;28;20445;-73
2021/09/19 04:01:09;;;;;;;8.77;7.90;;;;;;;12.02;99.95;154446.19;5034176;28;20449;-73
2021/09/19 04:03:44;;;;;;;14.30;9.20;;;;;;;12.07;100.00;154460.41;5039414;28;20860;-73
2021/09/19 04:06:20;;;;;;;8.87;7.90;;;;;;;12.05;100.00;154455.25;5035228;28;20480;-73
2021/09/19 04:08:55;;;;;;;9.37;8.40;;;;;;;12.11;100.00;154470.81;5027599;28;20444;-73
2021/09/19 04:11:31;;;;;;;9.87;8.87;;;;;;;12.04;100.00;154451.38;5034246;28;20921;-73
2021/09/19 04:14:06;;;;;;;9.27;8.30;;;;;;;11.98;100.00;154437.09;5052387;28;20421;-73
2021/09/19 04:16:43;;;;;;;9.07;8.13;;;;;;;11.94;100.00;154426.72;5031308;28;20790;-73
2021/09/19 04:19:19;;;;;;;10.67;8.23;;;;;;;11.97;100.00;154434.50;5033995;28;20441;-73
2021/09/19 04:21:54;;;;;;;8.60;7.00;;;;;;;11.92;100.00;154421.53;5052075;28;20969;-73
2021/09/19 04:24:30;;;;;;;11.23;8.87;;;;;;;12.05;100.00;154455.25;5052040;28;20474;-73
2021/09/19 04:27:06;;;;;;;10.17;7.90;;;;;;;12.05;100.00;154455.25;5030041;28;20439;-73
2021/09/19 04:29:42;;;;;;;9.20;8.30;;;;;;;11.98;100.00;154437.09;5046911;28;20439;-73
2021/09/19 04:32:21;;;;;;;10.30;9.03;;;;;;;11.91;100.00;154418.97;5046095;28;20446;-73
2021/09/19 04:34:56;;;;;;;8.97;8.00;;;;;;;11.84;100.00;154399.50;5033806;28;20450;-73
2021/09/19 04:37:32;;;;;;;8.60;7.70;;;;;;;11.84;100.00;154399.50;5022020;28;20477;-73
2021/09/19 04:40:09;;;;;;;9.57;7.57;;;;;;;11.85;100.00;154403.41;5026756;28;20800;-73
2021/09/19 04:42:45;;;;;;;22.50;9.80;;;;;;;11.87;100.00;154408.56;5053326;28;20433;-73
2021/09/19 04:45:20;;;;;;;11.97;7.73;;;;;;;11.97;100.00;154434.50;5042944;28;20465;-73
2021/09/19 04:47:58;;;;;;;10.17;8.13;;;;;;;11.94;100.00;154425.47;5031386;28;20453;-73
2021/09/19 04:50:34;;;;;;;9.10;8.10;;;;;;;11.94;100.00;154425.47;5033698;28;20472;-73
2021/09/19 04:53:09;;;;;;;9.10;8.20;;;;;;;11.95;100.00;154429.31;5055262;28;20496;-73
2021/09/19 04:55:44;;;;;;;10.07;8.30;;;;;;;11.92;100.00;154421.53;5037407;28;20455;-73
2021/09/19 04:58:20;;;;;;;8.70;7.80;;;;;;;11.90;100.00;154415.06;5054842;28;20447;-73
2021/09/19 05:00:55;;;;;;;8.60;7.67;;;;;;;11.84;100.00;154400.78;5039495;28;20559;-73
2021/09/19 05:03:32;;;;;;;9.43;8.50;;;;;;;11.87;100.00;154407.28;5055080;28;20950;-73
2021/09/19 05:06:08;;;;;;;8.37;7.50;;;;;;;11.96;100.00;154431.94;5037312;28;20471;-73
2021/09/19 05:08:44;;;;;;;9.67;8.37;;;;;;;12.03;100.00;154448.75;5034290;28;20457;-73
2021/09/19 05:11:19;;;;;;;8.63;7.77;;;;;;;12.01;100.00;154444.91;5049975;28;20490;-73
2021/09/19 05:13:54;;;;;;;8.30;7.50;;;;;;;12.07;100.00;154459.16;5053446;28;20451;-73
2021/09/19 05:16:30;;;;;;;8.23;7.43;;;;;;;12.09;100.00;154464.31;5055528;28;20439;-73
2021/09/19 05:19:07;;;;;;;9.00;8.00;;;;;;;12.14;100.00;154477.28;5028459;28;20540;-73
2021/09/19 05:21:42;;;;;;;9.83;8.83;;;;;;;12.04;100.00;154452.69;5037275;28;20805;-73
2021/09/19 05:24:18;;;;;;;10.03;8.77;;;;;;;11.98;100.00;154435.81;5054168;28;20480;-73
2021/09/19 05:26:53;;;;;;;9.73;8.57;;;;;;;11.96;100.00;154431.94;5028300;28;20572;-73
2021/09/19 05:29:28;;;;;;;8.77;7.73;;;;;;;11.98;100.00;154437.09;5009106;28;20448;-73
2021/09/19 05:32:04;;;;;;;9.80;8.80;;;;;;;11.99;100.00;154439.66;5036605;28;20455;-73
2021/09/19 05:34:41;;;;;;;9.20;8.30;;;;;;;11.97;100.00;154433.19;5054094;28;20453;-73
2021/09/19 05:37:16;;;;;;;11.97;9.20;;;;;;;11.94;100.00;154426.72;5033619;28;20440;-73
2021/09/19 05:39:52;;;;;;;9.23;8.33;;;;;;;11.95;100.00;154429.31;5048236;28;20447;-73
2021/09/19 05:42:28;;;;;;;9.70;8.73;;;;;;;12.01;100.00;154444.91;5030034;28;20443;-73
2021/09/19 05:45:04;;;;;;;11.03;9.77;;;;;;;12.02;100.00;154447.44;5025017;28;20448;-73
2021/09/19 05:47:39;;;;;;;9.13;8.23;;;;;;;12.05;100.00;154453.94;5053988;28;20536;-74
2021/09/19 05:50:16;;;;;;;8.70;7.90;;;;;;;12.09;100.00;154465.63;5034211;28;20458;-73
2021/09/19 05:52:52;;;;;;;9.47;8.27;;;;;;;12.08;100.00;154461.72;5015170;28;20462;-73
2021/09/19 05:55:27;;;;;;;9.27;8.30;;;;;;;12.13;100.00;154474.66;5033582;28;20500;-73
2021/09/19 05:58:03;;;;;;;10.07;8.40;;;;;;;12.33;100.00;154525.25;5020684;28;20442;-73
2021/09/19 06:00:39;;;;;;;9.90;8.90;;;;;;;12.36;100.00;154534.34;5031083;28;20446;-73
2021/09/19 06:03:14;;;;;;;9.70;8.30;;;;;;;12.36;100.00;154533.03;5013308;28;20449;-73
2021/09/19 06:05:51;;;;;;;9.60;8.10;;;;;;;12.42;100.00;154549.88;4999234;28;20479;-73
2021/09/19 06:08:27;;;;;;;8.47;7.57;;;;;;;12.52;100.00;154575.78;4996499;28;20450;-73
2021/09/19 06:11:02;;;;;;;9.70;8.00;;;;;;;12.71;100.00;154623.78;5023672;28;20446;-73
2021/09/19 06:13:38;;;;;;;9.03;8.13;;;;;;;12.87;100.00;154665.28;5003811;28;20529;-73
2021/09/19 06:16:13;;;;;;;9.73;8.73;;;;;;;13.10;99.32;154723.75;5026866;28;20482;-73
2021/09/19 06:18:49;;;;;;;9.33;8.37;;;;;;;13.32;98.89;154780.81;4996031;28;20470;-73
2021/09/19 06:21:26;;;;;;;9.73;7.80;;;;;;;13.45;96.66;154813.28;5025948;28;20461;-73
2021/09/19 06:24:01;;;;;;;10.60;7.50;;;;;;;13.59;94.26;154850.91;5011395;28;20491;-73
2021/09/19 06:26:37;;;;;;;9.20;7.90;;;;;;;13.71;94.26;154880.78;5012514;28;20490;-73
2021/09/19 06:29:12;;;;;;;9.63;7.73;;;;;;;13.84;94.55;154915.81;5015878;28;20447;-73
2021/09/19 06:31:48;;;;;;;8.47;7.60;;;;;;;13.91;95.61;154933.97;5026155;28;20463;-73
2021/09/19 06:34:24;;;;;;;8.30;7.50;;;;;;;13.99;93.02;154954.75;5001175;28;20452;-73
2021/09/19 06:37:01;;;;;;;9.83;8.83;;;;;;;14.12;93.33;154987.19;5008986;28;20991;-73
2021/09/19 06:39:37;;;;;;;8.70;7.77;;;;;;;14.21;94.14;155010.59;5044076;28;20534;-73
2021/09/19 06:42:12;;;;;;;8.37;7.47;;;;;;;14.42;92.05;155065.19;4994485;28;20456;-73
2021/09/19 06:44:49;;;;;;;8.17;7.47;;;;;;;14.66;91.84;155124.91;5018469;28;20491;-73
2021/09/19 06:47:25;;;;;;;8.00;7.20;;;;;;;14.76;90.76;155150.88;5024139;28;20472;-72
2021/09/19 06:50:00;;;;;;;9.33;7.97;;;;;;;14.91;91.40;155191.16;5024646;28;20448;-81
2021/09/19 06:52:37;;;;;;;9.23;7.37;;;;;;;15.19;90.52;155263.94;5019681;28;20868;-81
2021/09/19 06:55:13;;;;;;;8.10;7.13;;;;;;;15.43;88.67;155325.00;5018730;28;20436;-81
2021/09/19 06:57:54;;;;;;;7.60;6.43;;;;;;;15.52;86.79;155348.44;5022565;28;20438;-81
2021/09/19 07:00:30;;;;;;;7.40;6.70;;;;;;;15.89;84.46;155442.00;5009054;28;20488;-81
2021/09/19 07:03:05;;;;;;;8.03;7.33;;;;;;;16.04;83.02;155482.38;5005139;28;20446;-82
2021/09/19 07:05:41;;;;;;;7.37;6.67;;;;;;;16.21;82.07;155525.25;5011948;28;20547;-82
2021/09/19 07:08:18;;;;;;;7.70;7.00;;;;;;;16.64;83.19;155637.16;5019432;28;20837;-82
2021/09/19 07:10:53;;;;;;;7.90;7.20;;;;;;;16.80;79.64;155677.47;5016238;28;20565;-82
2021/09/19 07:13:29;;;;;;;8.47;7.50;;;;;;;16.88;80.15;155699.63;5034067;28;20854;-82
2021/09/19 07:16:04;;;;;;;6.10;5.60;;;;;;;16.94;78.16;155715.19;5025700;28;20498;-83
2021/09/19 07:18:41;;;;;;;6.50;5.90;;;;;;;17.16;77.48;155769.84;5016679;28;20439;-83
2021/09/19 07:21:17;;;;;;;6.13;5.53;;;;;;;17.35;76.79;155819.31;5016661;28;20448;-83
2021/09/19 07:23:54;;;;;;;7.30;6.67;;;;;;;17.25;76.10;155793.28;5021634;28;20428;-83
2021/09/19 07:26:29;;;;;;;6.23;5.63;;;;;;;17.62;76.47;155889.66;5025798;28;20471;-83
2021/09/19 07:29:05;;;;;;;6.07;5.47;;;;;;;17.72;74.86;155915.69;5007383;28;20439;-83
2021/09/19 07:31:41;;;;;;;6.30;5.70;;;;;;;17.81;74.39;155939.16;5021316;28;20439;-83
2021/09/19 07:34:17;;;;;;;6.10;5.50;;;;;;;17.83;74.69;155944.34;5008032;28;20475;-73
2021/09/19 07:36:53;;;;;;;7.80;5.07;;;;;;;17.90;72.85;155961.25;5004984;28;20456;-73
2021/09/19 07:39:30;;;;;;;6.53;5.90;;;;;;;18.05;73.57;156000.34;5026930;28;20455;-73
2021/09/19 07:42:06;;;;;;;6.23;5.63;;;;;;;18.18;70.70;156035.50;5024396;28;20444;-73
2021/09/19 07:44:43;;;;;;;5.90;5.30;;;;;;;18.18;70.51;156034.19;5006951;28;20436;-73
2021/09/19 07:47:19;;;;;;;6.07;5.57;;;;;;;17.93;70.31;155970.38;5007039;28;20504;-73
2021/09/19 07:49:55;;;;;;;5.50;5.00;;;;;;;17.90;70.82;155962.56;5004831;28;20543;-73
2021/09/19 07:52:31;;;;;;;5.67;5.20;;;;;;;17.78;71.58;155930.00;5024709;28;20475;-73
2021/09/19 07:55:11;;;;;;;7.03;5.70;;;;;;;18.10;72.21;156013.34;5041130;28;20430;-73
2021/09/19 07:57:47;;;;;;;6.87;5.60;;;;;;;18.28;70.38;156060.22;5017028;28;20866;-73
2021/09/19 08:00:22;;;;;;;6.10;5.50;;;;;;;18.50;70.59;156116.31;5051275;28;20546;-73
2021/09/19 08:02:58;;;;;;;5.83;5.33;;;;;;;18.63;69.24;156151.47;5052256;28;20796;-73
2021/09/19 08:05:33;;;;;;;5.20;4.80;;;;;;;18.86;68.66;156210.09;5028928;28;20455;-74
2021/09/19 08:08:09;;;;;;;5.40;4.90;;;;;;;19.33;66.99;156332.56;5012238;28;20474;-73
2021/09/19 08:10:46;;;;;;;6.03;5.27;;;;;;;19.37;67.48;156343.06;5041286;28;20459;-73
2021/09/19 08:13:22;;;;;;;5.80;5.20;;;;;;;19.24;67.68;156309.13;5046702;28;20435;-73
2021/09/19 08:15:57;;;;;;;5.47;4.77;;;;;;;19.11;68.71;156273.94;5046118;28;20521;-73
2021/09/19 08:18:33;;;;;;;6.23;5.63;;;;;;;19.24;67.36;156309.13;5045138;28;20443;-73
2021/09/19 08:21:08;;;;;;;5.17;4.77;;;;;;;19.36;67.38;156340.41;5025146;28;20428;-73
2021/09/19 08:23:44;;;;;;;6.03;5.50;;;;;;;19.53;66.73;156382.16;5018655;28;20439;-73
2021/09/19 08:26:21;;;;;;;6.03;5.53;;;;;;;19.67;66.42;156418.69;5045632;28;20831;-73
2021/09/19 08:28:59;;;;;;;6.47;5.97;;;;;;;19.27;66.41;156316.91;5009347;28;20452;-73
2021/09/19 08:31:37;;;;;;;5.63;5.13;;;;;;;19.23;66.62;156306.53;5025398;28;20467;-74
2021/09/19 08:34:13;;;;;;;7.03;5.93;;;;;;;19.11;67.37;156273.94;5024776;28;20435;-73
2021/09/19 08:36:48;;;;;;;5.50;4.97;;;;;;;19.33;67.89;156332.56;5049860;28;20438;-73
2021/09/19 08:39:24;;;;;;;5.90;5.40;;;;;;;19.26;66.67;156313.03;5009064;28;20446;-74
2021/09/19 08:42:01;;;;;;;6.07;5.57;;;;;;;19.35;66.83;156337.78;5024135;28;20447;-74
2021/09/19 08:44:37;;;;;;;5.63;5.13;;;;;;;19.38;66.03;156344.34;5024140;28;20530;-74
2021/09/19 08:47:13;;;;;;;6.20;5.60;;;;;;;19.36;66.32;156339.09;5008957;28;20475;-74
2021/09/19 08:49:49;;;;;;;6.27;5.77;;;;;;;19.04;68.55;156255.66;5028785;28;20447;-74
2021/09/19 08:52:24;;;;;;;5.97;5.40;;;;;;;18.74;68.58;156178.84;5021545;28;20466;-74
2021/09/19 08:55:01;;;;;;;5.60;5.10;;;;;;;18.78;68.92;156189.22;5041114;28;20440;-74
2021/09/19 08:57:38;;;;;;;5.90;5.30;;;;;;;18.85;69.23;156207.47;5024581;28;20487;-74
2021/09/19 09:00:17;;;;;;;7.47;5.17;;;;;;;18.74;68.44;156178.84;5039619;28;20475;-74
2021/09/19 09:02:57;;;;;;;5.90;5.40;;;;;;;18.56;69.59;156133.19;5039998;28;20543;-74
2021/09/19 09:05:37;;;;;;;5.13;4.63;;;;;;;18.83;70.00;156202.25;5026193;28;20458;-74
2021/09/19 09:08:25;;;;;;;6.87;6.17;;;;;;;18.91;68.30;156223.09;5039187;28;20530;-74
2021/09/19 09:11:06;;;;;;;5.53;5.03;;;;;;;19.00;68.09;156246.59;5049019;28;20478;-73
2021/09/19 09:13:43;;;;;;;5.87;5.30;;;;;;;19.01;69.33;156249.16;5043362;28;20432;-75
2021/09/19 09:16:20;;;;;;;6.00;5.50;;;;;;;19.12;67.66;156277.84;5024792;28;20453;-74
2021/09/19 09:18:57;;;;;;;5.77;5.27;;;;;;;18.92;68.95;156225.72;5023836;28;20861;-74
2021/09/19 09:21:33;;;;;;;5.10;4.60;;;;;;;18.74;70.08;156178.84;5054241;28;20435;-75
2021/09/19 09:24:09;;;;;;;5.60;5.10;;;;;;;18.67;71.82;156160.56;5044371;28;20440;-75
2021/09/19 09:26:45;;;;;;;5.80;5.20;;;;;;;18.61;71.01;156144.97;5046752;28;20832;-76
2021/09/19 09:29:23;;;;;;;5.60;5.10;;;;;;;18.75;70.45;156181.41;5041097;28;20956;-75
2021/09/19 09:31:58;;;;;;;6.53;5.13;;;;;;;18.77;69.29;156186.66;5045553;28;20575;-75
2021/09/19 09:34:33;;;;;;;6.03;5.40;;;;;;;18.50;69.66;156116.31;5044206;28;20435;-75
2021/09/19 09:37:09;;;;;;;5.60;5.10;;;;;;;18.69;69.63;156165.81;5031953;28;20438;-75
2021/09/19 09:39:45;;;;;;;5.40;4.90;;;;;;;18.18;72.64;156034.19;5027721;28;20777;-75
2021/09/19 09:42:23;;;;;;;5.60;5.10;;;;;;;18.11;73.15;156017.25;5047002;28;20477;-75
2021/09/19 09:45:01;;;;;;;6.10;5.50;;;;;;;18.33;73.61;156071.94;5049220;28;20498;-75
2021/09/19 09:47:40;;;;;;;6.90;6.20;;;;;;;17.88;72.32;155957.34;5031263;28;20763;-75
2021/09/19 09:50:16;;;;;;;6.50;5.90;;;;;;;18.01;72.14;155991.22;5028338;28;20444;-75
2021/09/19 09:52:54;;;;;;;5.67;5.17;;;;;;;18.15;72.05;156027.69;5029331;28;20794;-75
2021/09/19 09:55:30;;;;;;;6.13;5.53;;;;;;;18.17;71.63;156032.88;5013075;28;20456;-75
2021/09/19 09:58:09;;;;;;;6.27;5.67;;;;;;;18.06;72.99;156002.91;5031135;28;20918;-75
2021/09/19 10:00:47;;;;;;;6.10;5.00;;;;;;;18.20;72.93;156039.38;5015236;28;20443;-75
2021/09/19 10:03:24;;;;;;;5.70;5.20;;;;;;;18.15;71.92;156027.69;5017249;28;20542;-75
2021/09/19 10:05:59;;;;;;;6.37;5.77;;;;;;;17.98;73.48;155983.38;5012528;28;20436;-75
2021/09/19 10:08:35;;;;;;;5.50;5.00;;;;;;;18.10;74.69;156014.66;5010401;28;20477;-75
2021/09/19 10:11:11;;;;;;;6.73;6.10;;;;;;;18.30;72.42;156064.13;5031236;28;20436;-75
2021/09/19 10:13:46;;;;;;;7.33;6.63;;;;;;;18.27;71.87;156058.91;5031842;28;20443;-75
2021/09/19 10:16:23;;;;;;;7.07;6.00;;;;;;;18.16;71.60;156030.25;5011249;28;20455;-75
2021/09/19 10:19:00;;;;;;;7.20;6.50;;;;;;;18.27;71.55;156056.34;5013095;28;20447;-75
2021/09/19 10:21:36;;;;;;;5.73;5.23;;;;;;;18.42;73.15;156095.41;5014137;28;20526;-75
2021/09/19 10:24:12;;;;;;;6.07;5.47;;;;;;;18.39;72.10;156087.59;5029370;28;20439;-76
2021/09/19 10:26:52;;;;;;;7.20;6.60;;;;;;;18.26;71.77;156055.03;5020265;28;20474;-75
2021/09/19 10:29:29;;;;;;;8.70;6.40;;;;;;;18.27;72.60;156058.91;5003914;28;20448;-75
2021/09/19 10:32:06;;;;;;;8.27;6.10;;;;;;;18.43;72.46;156099.28;5003693;28;20963;-75
2021/09/19 10:34:52;;;;;;;6.23;5.63;;;;;;;18.43;72.80;156099.28;5003270;28;20923;-75
2021/09/19 10:37:52;;;;;;;6.67;6.07;;;;;;;18.40;73.44;156090.22;5001134;28;20549;-75
2021/09/19 10:40:33;;;;;;;6.90;6.27;;;;;;;18.48;72.92;156112.38;5013052;28;20433;-75
2021/09/19 10:43:10;;;;;;;7.50;6.60;;;;;;;18.49;72.92;156113.66;5012825;28;20452;-75
2021/09/19 10:45:50;;;;;;;7.67;6.87;;;;;;;18.43;72.93;156099.28;5008156;28;20440;-75
2021/09/19 10:48:31;;;;;;;7.97;7.20;;;;;;;18.50;73.60;156116.31;5018902;28;21077;-75
2021/09/19 10:51:09;;;;;;;7.70;6.87;;;;;;;18.51;73.82;156120.19;5021909;28;20549;-74
2021/09/19 10:53:47;;;;;;;6.90;6.30;;;;;;;18.68;73.07;156164.50;5044867;28;20811;-75
2021/09/19 10:56:24;;;;;;;7.90;7.10;;;;;;;18.48;73.06;156111.09;5034040;28;20443;-74
2021/09/19 10:59:00;;;;;;;7.27;6.60;;;;;;;18.33;74.29;156071.94;5049252;28;20454;-74
2021/09/19 11:01:37;;;;;;;7.90;6.90;;;;;;;18.31;74.25;156066.75;5018688;28;20479;-75
2021/09/19 11:04:16;;;;;;;6.97;5.90;;;;;;;18.36;74.33;156079.75;5016441;28;20454;-75
2021/09/19 11:06:52;;;;;;;8.60;7.70;;;;;;;18.25;72.46;156052.41;5034607;28;20930;-75
2021/09/19 11:09:29;;;;;;;8.40;7.53;;;;;;;18.33;72.59;156071.94;5043437;28;20442;-75
2021/09/19 11:12:08;;;;;;;7.70;7.00;;;;;;;18.31;72.37;156066.75;5046789;28;20435;-75
2021/09/19 11:14:56;;;;;;;8.20;7.40;;;;;;;18.16;73.31;156030.25;5039222;28;20448;-75
2021/09/19 11:17:34;;;;;;;7.93;7.13;;;;;;;18.26;71.90;156055.03;5053762;28;20443;-75
2021/09/19 11:20:24;;;;;;;9.10;7.70;;;;;;;18.30;72.95;156064.13;5052565;28;20474;-75
2021/09/19 11:23:21;;;;;;;10.50;7.13;;;;;;;18.36;73.34;156079.75;5035516;28;20447;-75
2021/09/19 11:25:56;;;;;;;8.23;7.50;;;;;;;18.43;71.57;156097.97;5052363;28;20530;-75
2021/09/19 11:28:33;;;;;;;9.53;8.40;;;;;;;18.32;70.91;156069.38;5053338;28;20475;-75
2021/09/19 11:31:09;;;;;;;8.37;7.57;;;;;;;18.19;72.33;156036.75;5031249;28;20439;-75
2021/09/19 11:33:45;;;;;;;8.57;7.77;;;;;;;18.14;72.61;156025.06;5000674;28;20455;-75
2021/09/19 11:36:22;;;;;;;7.97;7.17;;;;;;;18.18;72.07;156035.50;5016232;28;21255;-75
2021/09/19 11:38:58;;;;;;;9.40;7.83;;;;;;;18.28;71.28;156060.22;5037260;28;20439;-75
2021/09/19 11:41:34;;;;;;;8.93;8.03;;;;;;;18.31;72.88;156066.75;5035414;28;20446;-75
2021/09/19 11:44:12;;;;;;;8.50;7.70;;;;;;;18.46;71.30;156105.81;5052550;28;20455;-75
2021/09/19 11:46:49;;;;;;;9.30;8.40;;;;;;;18.30;69.74;156064.13;5035479;28;20450;-75
2021/09/19 11:49:24;;;;;;;9.10;8.23;;;;;;;18.22;70.97;156044.59;5021341;28;20774;-75
2021/09/19 11:52:02;;;;;;;8.53;7.80;;;;;;;18.32;71.22;156070.63;5016606;28;20467;-75
2021/09/19 11:54:37;;;;;;;8.10;7.30;;;;;;;18.46;71.21;156107.09;5034740;28;20853;-75
2021/09/19 11:57:14;;;;;;;7.17;6.50;;;;;;;18.43;70.76;156097.97;5030228;28;20448;-75
2021/09/19 11:59:50;;;;;;;8.63;7.33;;;;;;;18.30;71.72;156065.44;5040752;28;20804;-75
2021/09/19 12:02:29;;;;;;;8.60;7.80;;;;;;;18.32;71.81;156069.38;5034155;28;20530;-75
2021/09/19 12:05:06;;;;;;;8.57;7.57;;;;;;;18.18;71.15;156034.19;5030931;28;20432;-75